Flight Track Log - Related Links

Times and Time Zones

All times are in EST time to prevent confusion due to time zone crossing. See the UCA596 flight status page for this flight to view local times or setup timezone preferences in your user account.

Time Position Orientation Groundspeed Altitude Reporting Facility
EST Latitude Longitude Course Direction KTS MPH feet Rate Location/Type
Thu 01:36:49 PM 38.9667 -77.5000 North 134 154 2,400  Level Potomac TRACON
Thu 01:37:49 PM 39.0000 -77.5000 360° North 167 192 4,000 1,647 Climbing Potomac TRACON
Thu 01:40:13 PM 39.1256 -77.4914 North 186 214 8,000 1,706 Climbing Washington Center
Thu 01:41:13 PM 39.1800 -77.4847 North 186 214 9,800 1,537 Climbing Washington Center
Thu 01:42:00 PM 39.3985 -77.4500 North  Level FlightAware Approximate
Thu 01:42:14 PM 39.2258 -77.4831 North 175 201 11,100  Level Washington Center
Thu 01:43:14 PM 39.2697 -77.4817 North 170 196 12,600 1,424 Climbing Washington Center
Thu 01:44:12 PM 39.3175 -77.4775 North 170 196 13,900 1,160 Climbing Washington Center
Thu 01:45:13 PM 39.3656 -77.4761 North 170 196 14,900 1,131 Climbing Washington Center
Thu 01:46:14 PM 39.4178 -77.4719 North 176 203 16,200 1,190 Climbing Washington Center
Thu 01:47:14 PM 39.4678 -77.4681 North 176 203 17,300 1,322 Climbing Washington Center
Thu 01:48:12 PM 39.5200 -77.4667 North 176 203 18,800 864 Climbing Washington Center
Thu 01:49:12 PM 39.5742 -77.4628 North 181 208 19,000 88 Climbing Washington Center
Thu 01:50:29 PM 39.6572 -77.4536 North 220 253 19,000  Level New York Center
Thu 01:51:29 PM 39.7136 -77.4536 360° North 226 260 19,000  Level New York Center
Thu 01:52:29 PM 39.7803 -77.4517 North 220 253 19,000  Level New York Center
Thu 01:53:29 PM 39.8489 -77.4203 19° North 233 268 19,000  Level New York Center
Thu 01:54:29 PM 39.9222 -77.3758 25° Northeast 271 312 19,000  Level New York Center
Thu 01:55:29 PM 39.9936 -77.3339 24° Northeast 276 318 19,000  Level New York Center
Thu 01:56:29 PM 40.0667 -77.2919 24° Northeast 282 325 19,000  Level New York Center
Thu 01:57:29 PM 40.1400 -77.2472 25° Northeast 287 330 19,000  Level New York Center
Thu 01:58:29 PM 40.2133 -77.2050 24° Northeast 287 330 19,000  Level New York Center
Thu 01:59:29 PM 40.2864 -77.1628 24° Northeast 287 330 19,000  Level New York Center
Thu 02:00:29 PM 40.3511 -77.1253 24° Northeast 287 330 19,000  Level New York Center
Thu 02:01:29 PM 40.4136 -77.0872 25° Northeast 287 330 19,000  Level New York Center
Thu 02:02:29 PM 40.4911 -77.0397 25° Northeast 287 330 19,000 -300 Level New York Center
Thu 02:03:29 PM 40.5664 -76.9947 24° Northeast 282 325 18,400 -800 Descending New York Center
Thu 02:04:29 PM 40.6331 -76.9569 23° Northeast 282 325 17,400 -700 Descending New York Center
Thu 02:05:29 PM 40.7147 -76.9069 25° Northeast 287 330 17,000 -200 Descending New York Center
Thu 02:06:29 PM 40.7750 -76.8683 26° Northeast 287 330 17,000  Level New York Center
Thu 02:07:29 PM 40.8547 -76.8206 24° Northeast 282 325 17,000  Level New York Center
Thu 02:08:29 PM 40.9275 -76.7803 23° Northeast 282 325 17,000  Level New York Center
Thu 02:09:29 PM 40.9942 -76.7394 25° Northeast 289 333 17,000  Level New York Center
Thu 02:10:29 PM 41.0653 -76.6933 26° Northeast 289 333 17,000  Level New York Center
Thu 02:11:29 PM 41.1406 -76.6450 26° Northeast 283 326 17,000  Level New York Center
Thu 02:12:29 PM 41.2136 -76.6017 24° Northeast 283 326 17,000  Level New York Center
Thu 02:13:29 PM 41.2869 -76.5528 27° Northeast 288 331 17,000  Level New York Center
Thu 02:14:29 PM 41.3514 -76.5139 24° Northeast 288 331 17,000  Level New York Center
Thu 02:15:29 PM 41.4306 -76.4683 23° Northeast 288 331 17,000 -250 Level New York Center
Thu 02:16:29 PM 41.5014 -76.4244 25° Northeast 283 326 16,500 -850 Descending New York Center
Thu 02:17:29 PM 41.5764 -76.3781 25° Northeast 288 331 15,300 -1,300 Descending New York Center
Thu 02:18:29 PM 41.6450 -76.3367 24° Northeast 293 337 13,900 -1,450 Descending New York Center
Thu 02:19:29 PM 41.7117 -76.2947 25° Northeast 275 316 12,400 -1,600 Descending New York Center
Thu 02:20:29 PM 41.7803 -76.2506 26° Northeast 254 292 10,700 -1,650 Descending New York Center
Thu 02:21:29 PM 41.8308 -76.1906 41° Northeast 244 281 9,100 -1,650 Descending New York Center
Thu 02:22:29 PM 41.8636 -76.1097 61° Northeast 242 278 7,400 -1,600 Descending New York Center
Thu 02:23:29 PM 41.8919 -76.0367 62° Northeast 242 278 5,900 -1,550 Descending New York Center
Thu 02:24:29 PM 41.9206 -75.9556 65° Northeast 242 278 4,300 -950 Descending New York Center
Thu 02:25:29 PM 41.9556 -75.8689 61° Northeast 232 267 4,000 -200 Descending New York Center
Thu 02:26:29 PM 41.9992 -75.8194 40° Northeast 224 258 3,900  Descending New York Center
Thu 02:27:29 PM 42.0461 -75.8453 338° Northwest 162 186 4,000 100 Climbing New York Center
Thu 02:28:29 PM 42.0869 -75.8622 343° North 156 180 4,100 2,000 Climbing New York Center
Thu 02:29:29 PM 42.1278 -75.8794 343° North 156 180 8,000 1,950 Climbing New York Center
Thu 02:30:29 PM 42.1686 -75.8967 343° North 156 180 8,000  Level New York Center
Thu 02:31:29 PM 42.2097 -75.9139 343° North 156 180 8,000  Level New York Center
Thu 02:32:29 PM 42.2261 -75.9206 343° North 156 180 8,000  Level New York Center
Thu 02:33:29 PM 42.0503 -75.9853 195° South 156 180 8,000  Level New York Center
Thu 02:35:00 PM 42.1522 -75.9726 North  Level FlightAware Approximate
Thu 02:42:00 PM 42.2000 -75.9667 333° Northwest  Level FlightAware Approximate
Thu 02:43:00 PM 42.2084 -75.9796 333° Northwest  Level Estimated
Thu 02:44:00 PM 42.2084 -75.9796 333° Northwest  Level Estimated
Thu 02:45:00 PM 42.2084 -75.9796 333° Northwest  Level Estimated
Thu 02:46:00 PM 42.2084 -75.9796 333° Northwest  Level Estimated

Login

Don't have an account? Register now (free) for customized features, flight alerts, and more!